createdAt,value
2022-12-16T00:01:37.140Z,-3.50
2022-12-16T00:04:06.513Z,-3.50
2022-12-16T00:06:35.439Z,-3.60
2022-12-16T00:09:03.713Z,-3.50
2022-12-16T00:11:32.794Z,-3.60
2022-12-16T00:14:00.837Z,-3.60
2022-12-16T00:16:28.808Z,-3.50
2022-12-16T00:18:56.643Z,-3.50
2022-12-16T00:21:29.849Z,-3.50
2022-12-16T00:23:58.283Z,-3.50
2022-12-16T00:26:26.371Z,-3.50
2022-12-16T00:28:54.953Z,-3.50
2022-12-16T00:31:22.973Z,-3.40
2022-12-16T00:33:52.850Z,-3.50
2022-12-16T00:36:20.709Z,-3.50
2022-12-16T00:38:51.926Z,-3.50
2022-12-16T00:41:22.999Z,-3.50
2022-12-16T00:43:50.918Z,-3.50
2022-12-16T00:46:19.657Z,-3.50
2022-12-16T00:48:47.593Z,-3.50
2022-12-16T00:51:15.537Z,-3.50
2022-12-16T00:53:43.553Z,-3.50
2022-12-16T00:56:15.131Z,-3.50
2022-12-16T00:58:43.165Z,-3.60
2022-12-16T01:01:11.596Z,-3.60
2022-12-16T01:03:40.030Z,-3.60
2022-12-16T01:06:12.962Z,-3.60
2022-12-16T01:08:41.173Z,-3.60
2022-12-16T01:11:13.111Z,-3.60
2022-12-16T01:13:41.005Z,-3.60
2022-12-16T01:16:09.134Z,-3.60
2022-12-16T01:18:37.298Z,-3.60
2022-12-16T01:21:06.081Z,-3.60
2022-12-16T01:23:34.955Z,-3.60
2022-12-16T01:26:04.073Z,-3.60
2022-12-16T01:28:33.335Z,-3.60
2022-12-16T01:31:02.592Z,-3.60
2022-12-16T01:33:32.894Z,-3.60
2022-12-16T01:36:02.256Z,-3.60
2022-12-16T01:38:31.634Z,-3.60
2022-12-16T01:41:00.287Z,-3.70
2022-12-16T01:43:30.745Z,-3.70
2022-12-16T01:46:04.497Z,-3.70
2022-12-16T01:48:41.055Z,-3.70
2022-12-16T01:51:12.812Z,-3.70
2022-12-16T01:53:43.180Z,-3.80
2022-12-16T01:56:14.705Z,-3.80
2022-12-16T01:58:43.546Z,-3.80
2022-12-16T02:01:13.466Z,-3.80
2022-12-16T02:03:43.306Z,-3.80
2022-12-16T02:06:11.483Z,-3.80
2022-12-16T02:08:39.394Z,-3.80
2022-12-16T02:11:37.758Z,-3.90
2022-12-16T02:14:21.444Z,-3.90
2022-12-16T02:17:00.189Z,-3.90
2022-12-16T02:19:57.964Z,-3.90
2022-12-16T02:22:35.938Z,-3.90
2022-12-16T02:25:41.049Z,-3.90
2022-12-16T02:28:12.727Z,-4.00
2022-12-16T02:30:52.604Z,-4.00
2022-12-16T02:33:50.163Z,-4.00
2022-12-16T02:36:27.303Z,-4.00
2022-12-16T02:39:00.668Z,-4.10
2022-12-16T02:41:38.878Z,-4.10
2022-12-16T02:44:10.099Z,-4.10
2022-12-16T02:46:43.332Z,-4.10
2022-12-16T02:49:46.590Z,-4.10
2022-12-16T02:52:15.499Z,-4.10
2022-12-16T02:54:44.996Z,-4.10
2022-12-16T02:57:24.380Z,-4.10
2022-12-16T03:00:01.520Z,-4.10
2022-12-16T03:02:38.270Z,-4.10
2022-12-16T03:05:11.757Z,-4.10
2022-12-16T03:07:42.045Z,-4.10
2022-12-16T03:10:15.177Z,-4.10
2022-12-16T03:12:46.677Z,-4.20
2022-12-16T03:15:18.667Z,-4.20
2022-12-16T03:17:50.382Z,-4.20
2022-12-16T03:20:25.166Z,-4.20
2022-12-16T03:22:55.709Z,-4.20
2022-12-16T03:25:25.008Z,-4.20
2022-12-16T03:28:00.056Z,-4.20
2022-12-16T03:30:33.887Z,-4.20
2022-12-16T03:33:06.984Z,-4.30
2022-12-16T03:35:38.755Z,-4.20
2022-12-16T03:38:09.881Z,-4.30
2022-12-16T03:40:40.705Z,-4.30
2022-12-16T03:43:11.397Z,-4.30
2022-12-16T03:45:41.709Z,-4.30
2022-12-16T03:48:12.923Z,-4.30
2022-12-16T03:50:41.338Z,-4.30
2022-12-16T03:53:09.679Z,-4.30
2022-12-16T03:55:37.612Z,-4.30
2022-12-16T03:58:05.474Z,-4.30
2022-12-16T04:00:33.401Z,-4.30
2022-12-16T04:03:01.495Z,-4.30
2022-12-16T04:05:30.922Z,-4.30
2022-12-16T04:08:01.894Z,-4.30
2022-12-16T04:10:47.683Z,-4.30
2022-12-16T04:13:33.707Z,-4.40
2022-12-16T04:16:20.252Z,-4.40
2022-12-16T04:19:15.362Z,-4.40
2022-12-16T04:22:02.126Z,-4.50
2022-12-16T04:24:31.408Z,-4.50
2022-12-16T04:27:16.759Z,-4.60
2022-12-16T04:30:07.572Z,-4.60
2022-12-16T04:32:49.597Z,-4.70
2022-12-16T04:35:35.366Z,-4.70
2022-12-16T04:38:22.522Z,-4.70
2022-12-16T04:41:08.090Z,-4.70
2022-12-16T04:43:53.391Z,-4.80
2022-12-16T04:46:39.132Z,-4.80
2022-12-16T04:49:24.493Z,-4.80
2022-12-16T04:52:06.250Z,-4.80
2022-12-16T04:54:53.412Z,-4.90
2022-12-16T04:57:38.838Z,-4.90
2022-12-16T05:00:25.890Z,-4.90
2022-12-16T05:03:11.255Z,-5.00
2022-12-16T05:05:56.712Z,-5.00
2022-12-16T05:08:42.470Z,-5.10
2022-12-16T05:11:29.686Z,-5.10
2022-12-16T05:14:15.002Z,-5.10
2022-12-16T05:17:00.587Z,-5.10
2022-12-16T05:19:46.006Z,-5.20
2022-12-16T05:22:31.527Z,-5.20
2022-12-16T05:25:17.037Z,-5.20
2022-12-16T05:28:03.986Z,-5.30
2022-12-16T05:30:49.608Z,-5.40
2022-12-16T05:33:35.251Z,-5.30
2022-12-16T05:36:20.782Z,-5.40
2022-12-16T05:39:20.732Z,-5.30
2022-12-16T05:42:06.372Z,-5.30
2022-12-16T05:44:53.097Z,-5.30
2022-12-16T05:47:39.046Z,-5.30
2022-12-16T05:50:25.451Z,-5.30
2022-12-16T05:53:11.812Z,-5.30
2022-12-16T05:55:57.742Z,-5.30
2022-12-16T05:58:43.308Z,-5.30
2022-12-16T06:01:30.022Z,-5.40
2022-12-16T06:04:17.757Z,-5.40
2022-12-16T06:07:03.892Z,-5.40
2022-12-16T06:09:54.702Z,-5.40
2022-12-16T06:12:42.210Z,-5.40
2022-12-16T06:15:28.234Z,-5.40
2022-12-16T06:18:15.131Z,-5.30
2022-12-16T06:21:00.607Z,-5.40
2022-12-16T06:23:46.179Z,-5.30
2022-12-16T06:26:31.757Z,-5.30
2022-12-16T06:29:17.296Z,-5.30
2022-12-16T06:32:02.822Z,-5.30
2022-12-16T06:34:49.565Z,-5.30
2022-12-16T06:37:35.149Z,-5.40
2022-12-16T06:40:20.905Z,-5.40
2022-12-16T06:43:06.478Z,-5.40
2022-12-16T06:45:53.093Z,-5.30
2022-12-16T06:48:38.552Z,-5.40
2022-12-16T06:51:25.213Z,-5.40
2022-12-16T06:54:10.863Z,-5.40
2022-12-16T06:56:56.483Z,-5.50
2022-12-16T06:59:42.551Z,-5.50
2022-12-16T07:02:29.714Z,-5.50
2022-12-16T07:05:15.060Z,-5.50
2022-12-16T07:08:07.369Z,-5.50
2022-12-16T07:10:52.997Z,-5.50
2022-12-16T07:13:41.156Z,-5.60
2022-12-16T07:16:26.650Z,-5.60
2022-12-16T07:19:12.219Z,-5.60
2022-12-16T07:21:57.803Z,-5.60
2022-12-16T07:24:44.392Z,-5.60
2022-12-16T07:27:30.055Z,-5.70
2022-12-16T07:30:15.119Z,-5.70
2022-12-16T07:33:00.855Z,-5.60
2022-12-16T07:35:46.150Z,-5.60
2022-12-16T07:38:31.404Z,-5.60
2022-12-16T07:41:18.186Z,-5.60
2022-12-16T07:44:03.720Z,-5.60
2022-12-16T07:46:49.062Z,-5.60
2022-12-16T07:49:34.696Z,-5.50
2022-12-16T07:52:20.021Z,-5.10
2022-12-16T07:55:05.497Z,-4.70
2022-12-16T07:57:52.201Z,-4.30
2022-12-16T08:00:37.780Z,-3.80
2022-12-16T08:03:23.372Z,-3.30
2022-12-16T08:06:08.938Z,-2.70
2022-12-16T08:08:54.428Z,-2.40
2022-12-16T08:11:39.774Z,-2.20
2022-12-16T08:14:26.654Z,-1.60
2022-12-16T08:17:12.396Z,-0.40
2022-12-16T08:19:57.685Z,0.70
2022-12-16T08:22:43.308Z,1.50
2022-12-16T08:25:28.849Z,2.20
2022-12-16T08:28:15.318Z,2.50
2022-12-16T08:31:02.457Z,2.90
2022-12-16T08:33:47.757Z,3.30
2022-12-16T08:36:33.435Z,3.80
2022-12-16T08:39:18.983Z,3.90
2022-12-16T08:42:04.213Z,4.10
2022-12-16T08:44:49.802Z,4.40
2022-12-16T08:47:36.526Z,4.50
2022-12-16T08:50:22.314Z,4.90
2022-12-16T08:53:07.838Z,5.40
2022-12-16T08:55:55.941Z,5.10
2022-12-16T08:58:41.465Z,4.70
2022-12-16T09:01:27.029Z,3.80
2022-12-16T09:04:13.797Z,3.10
2022-12-16T09:06:59.204Z,2.40
2022-12-16T09:09:44.404Z,2.40
2022-12-16T09:12:29.834Z,2.80
2022-12-16T09:15:15.417Z,3.50
2022-12-16T09:18:00.976Z,4.50
2022-12-16T09:20:47.786Z,5.30
2022-12-16T09:23:38.406Z,5.50
2022-12-16T09:26:24.115Z,5.60
2022-12-16T09:29:11.947Z,4.90
2022-12-16T09:31:57.570Z,3.90
2022-12-16T09:34:43.189Z,3.50
2022-12-16T09:37:30.670Z,3.40
2022-12-16T09:40:24.711Z,3.40
2022-12-16T09:43:18.135Z,2.70
2022-12-16T09:46:11.607Z,2.00
2022-12-16T09:49:02.317Z,1.70
2022-12-16T09:51:47.725Z,1.50
2022-12-16T09:54:38.278Z,1.50
2022-12-16T09:57:23.912Z,1.80
2022-12-16T10:00:14.905Z,1.70
2022-12-16T10:03:06.696Z,1.80
2022-12-16T10:06:11.867Z,1.90
2022-12-16T10:09:03.351Z,2.00
2022-12-16T10:12:06.225Z,2.00
2022-12-16T10:14:57.822Z,1.80
2022-12-16T10:17:44.539Z,1.70
2022-12-16T10:20:39.495Z,1.50
2022-12-16T10:23:34.445Z,1.30
2022-12-16T10:26:24.927Z,1.00
2022-12-16T10:29:22.343Z,1.00
2022-12-16T10:32:07.901Z,1.20
2022-12-16T10:34:56.802Z,1.20
2022-12-16T10:37:49.631Z,1.10
2022-12-16T10:40:40.128Z,0.90
2022-12-16T10:43:35.031Z,0.60
2022-12-16T10:46:28.196Z,0.30
2022-12-16T10:49:14.462Z,0.20
2022-12-16T10:52:03.959Z,0.20
2022-12-16T10:54:58.996Z,0.10
2022-12-16T10:57:53.694Z,0.10
2022-12-16T11:00:56.166Z,0.10
2022-12-16T11:03:44.888Z,0.00
2022-12-16T11:06:34.332Z,-0.10
2022-12-16T11:09:33.967Z,-0.10
2022-12-16T11:12:38.235Z,-0.10
2022-12-16T11:15:42.077Z,-0.10
2022-12-16T11:18:30.321Z,0.00
2022-12-16T11:21:30.813Z,0.00
2022-12-16T11:24:30.716Z,0.00
2022-12-16T11:27:18.426Z,0.00
2022-12-16T11:30:14.668Z,-0.10
2022-12-16T11:33:05.484Z,-0.10
2022-12-16T11:35:53.422Z,-0.30
2022-12-16T11:38:47.880Z,-0.30
2022-12-16T11:41:44.909Z,-0.30
2022-12-16T11:44:37.441Z,-0.40
2022-12-16T11:47:29.560Z,-0.50
2022-12-16T11:50:32.405Z,-0.60
2022-12-16T11:53:18.919Z,-0.70
2022-12-16T11:56:15.415Z,-0.70
2022-12-16T11:59:05.005Z,-0.70
2022-12-16T12:01:56.451Z,-0.70
2022-12-16T12:04:42.270Z,-0.70
2022-12-16T12:07:44.975Z,-0.70
2022-12-16T12:10:48.432Z,-0.80
2022-12-16T12:13:54.312Z,-0.70
2022-12-16T12:16:53.860Z,-0.70
2022-12-16T12:19:44.971Z,-0.70
2022-12-16T12:22:44.058Z,-0.70
2022-12-16T12:25:45.745Z,-0.70
2022-12-16T12:28:44.165Z,-0.80
2022-12-16T12:31:43.268Z,-0.80
2022-12-16T12:34:36.472Z,-0.80
2022-12-16T12:37:27.645Z,-0.80
2022-12-16T12:40:20.883Z,-0.90
2022-12-16T12:43:10.388Z,-0.80
2022-12-16T12:46:22.520Z,-0.90
2022-12-16T12:49:16.493Z,-0.90
2022-12-16T12:52:11.741Z,-0.80
2022-12-16T12:55:07.091Z,-0.80
2022-12-16T12:57:55.360Z,-0.80
2022-12-16T13:00:44.501Z,-0.80
2022-12-16T13:03:37.791Z,-0.80
2022-12-16T13:06:24.780Z,-0.80
2022-12-16T13:09:15.606Z,-0.80
2022-12-16T13:12:34.628Z,-0.80
2022-12-16T13:15:24.748Z,-0.70
2022-12-16T13:18:49.659Z,-0.70
2022-12-16T13:22:05.127Z,-0.60
2022-12-16T13:25:00.004Z,-0.60
2022-12-16T13:27:47.815Z,-0.50
2022-12-16T13:30:42.194Z,-0.50
2022-12-16T13:33:45.086Z,-0.40
2022-12-16T13:36:32.617Z,-0.30
2022-12-16T13:39:34.783Z,-0.20
2022-12-16T13:42:34.841Z,-0.10
2022-12-16T13:45:36.521Z,0.00
2022-12-16T13:48:24.099Z,0.20
2022-12-16T13:51:18.515Z,0.30
2022-12-16T13:54:08.082Z,0.30
2022-12-16T13:57:00.474Z,0.40
2022-12-16T13:59:49.706Z,0.50
2022-12-16T14:02:44.297Z,0.50
2022-12-16T14:05:37.120Z,0.50
2022-12-16T14:08:25.036Z,0.40
2022-12-16T14:11:18.469Z,0.30
2022-12-16T14:14:14.860Z,0.20
2022-12-16T14:17:09.617Z,0.10
2022-12-16T14:20:12.314Z,0.00
2022-12-16T14:23:10.626Z,-0.20
2022-12-16T14:25:58.322Z,-0.30
2022-12-16T14:28:48.125Z,-0.40
2022-12-16T14:31:40.341Z,-0.50
2022-12-16T14:34:33.782Z,-0.60
2022-12-16T14:37:23.895Z,-0.60
2022-12-16T14:40:11.684Z,-0.70
2022-12-16T14:43:12.853Z,-0.70
2022-12-16T14:46:07.177Z,-0.80
2022-12-16T14:48:56.554Z,-0.80
2022-12-16T14:51:44.009Z,-0.90
2022-12-16T14:54:38.314Z,-0.90
2022-12-16T14:57:27.781Z,-1.00
2022-12-16T15:00:31.326Z,-1.00
2022-12-16T15:03:20.707Z,-1.10
2022-12-16T15:06:08.175Z,-1.10
2022-12-16T15:09:00.089Z,-1.20
2022-12-16T15:11:45.945Z,-1.20
2022-12-16T15:14:33.511Z,-1.30
2022-12-16T15:17:19.736Z,-1.40
2022-12-16T15:20:10.730Z,-1.40
2022-12-16T15:23:03.714Z,-1.50
2022-12-16T15:25:49.939Z,-1.50
2022-12-16T15:28:43.973Z,-1.60
2022-12-16T15:31:34.241Z,-1.60
2022-12-16T15:34:43.432Z,-1.70
2022-12-16T15:37:44.389Z,-1.70
2022-12-16T15:40:44.876Z,-1.80
2022-12-16T15:43:44.721Z,-1.80
2022-12-16T15:46:38.850Z,-1.90
2022-12-16T15:49:33.356Z,-1.90
2022-12-16T15:52:19.061Z,-1.90
2022-12-16T15:55:12.715Z,-2.00
2022-12-16T15:58:14.510Z,-2.00
2022-12-16T16:00:59.726Z,-2.10
2022-12-16T16:03:48.022Z,-2.10
2022-12-16T16:06:35.628Z,-2.20
2022-12-16T16:09:31.174Z,-2.20
2022-12-16T16:12:16.661Z,-2.30
2022-12-16T16:15:03.338Z,-2.30
2022-12-16T16:17:48.861Z,-2.40
2022-12-16T16:20:36.091Z,-2.50
2022-12-16T16:23:22.171Z,-2.50
2022-12-16T16:26:08.069Z,-2.60
2022-12-16T16:28:54.187Z,-2.60
2022-12-16T16:31:41.117Z,-2.70
2022-12-16T16:34:27.000Z,-2.70
2022-12-16T16:37:14.352Z,-2.80
2022-12-16T16:40:00.706Z,-2.80
2022-12-16T16:42:46.204Z,-2.90
2022-12-16T16:45:32.173Z,-2.90
2022-12-16T16:48:27.919Z,-2.90
2022-12-16T16:51:15.700Z,-3.00
2022-12-16T16:54:01.618Z,-3.00
2022-12-16T16:56:49.304Z,-3.00
2022-12-16T16:59:34.790Z,-3.00
2022-12-16T17:02:20.326Z,-3.00
2022-12-16T17:05:07.226Z,-3.00
2022-12-16T17:07:54.103Z,-3.00
2022-12-16T17:10:39.369Z,-3.10
2022-12-16T17:13:25.019Z,-3.10
2022-12-16T17:16:10.688Z,-3.10
2022-12-16T17:19:04.302Z,-3.20
2022-12-16T17:21:51.130Z,-3.20
2022-12-16T17:24:37.983Z,-3.30
2022-12-16T17:27:32.622Z,-3.30
2022-12-16T17:30:19.302Z,-3.30
2022-12-16T17:33:04.764Z,-3.30
2022-12-16T17:35:50.483Z,-3.40
2022-12-16T17:38:37.583Z,-3.40
2022-12-16T17:41:23.073Z,-3.40
2022-12-16T17:44:11.634Z,-3.40
2022-12-16T17:46:57.607Z,-3.40
2022-12-16T17:49:42.875Z,-3.40
2022-12-16T17:52:28.289Z,-3.40
2022-12-16T17:55:14.971Z,-3.50
2022-12-16T17:58:00.788Z,-3.50
2022-12-16T18:00:46.230Z,-3.60
2022-12-16T18:03:31.892Z,-3.60
2022-12-16T18:06:17.900Z,-3.70
2022-12-16T18:09:03.615Z,-3.70
2022-12-16T18:11:50.688Z,-3.70
2022-12-16T18:14:36.147Z,-3.80
2022-12-16T18:17:21.357Z,-3.90
2022-12-16T18:20:06.864Z,-3.90
2022-12-16T18:22:52.152Z,-3.90
2022-12-16T18:25:37.579Z,-4.00
2022-12-16T18:28:24.838Z,-4.00
2022-12-16T18:31:10.523Z,-4.00
2022-12-16T18:33:55.042Z,-4.00
2022-12-16T18:36:40.677Z,-4.00
2022-12-16T18:39:25.936Z,-4.10
2022-12-16T18:42:11.440Z,-4.10
2022-12-16T18:45:01.325Z,-4.10
2022-12-16T18:47:47.231Z,-4.00
2022-12-16T18:50:47.081Z,-4.10
2022-12-16T18:53:34.085Z,-4.10
2022-12-16T18:56:23.142Z,-4.10
2022-12-16T18:59:08.445Z,-4.10
2022-12-16T19:01:55.392Z,-4.10
2022-12-16T19:04:41.254Z,-4.10
2022-12-16T19:07:26.600Z,-4.10
2022-12-16T19:10:12.439Z,-4.20
2022-12-16T19:12:57.929Z,-4.20
2022-12-16T19:15:44.938Z,-4.20
2022-12-16T19:18:34.577Z,-4.20
2022-12-16T19:21:20.007Z,-4.30
2022-12-16T19:24:07.283Z,-4.30
2022-12-16T19:26:52.939Z,-4.30
2022-12-16T19:29:41.959Z,-4.30
2022-12-16T19:32:41.970Z,-4.30
2022-12-16T19:35:31.346Z,-4.30
2022-12-16T19:38:17.160Z,-4.30
2022-12-16T19:41:09.249Z,-4.40
2022-12-16T19:43:58.710Z,-4.40
2022-12-16T19:46:47.238Z,-4.40
2022-12-16T19:49:32.518Z,-4.40
2022-12-16T19:52:20.111Z,-4.50
2022-12-16T19:55:05.715Z,-4.50
2022-12-16T19:57:51.057Z,-4.50
2022-12-16T20:00:37.111Z,-4.50
2022-12-16T20:03:22.495Z,-4.50
2022-12-16T20:06:18.092Z,-4.60
2022-12-16T20:09:09.413Z,-4.60
2022-12-16T20:11:54.900Z,-4.70
2022-12-16T20:14:41.297Z,-4.70
2022-12-16T20:17:26.835Z,-4.80
2022-12-16T20:20:12.488Z,-4.90
2022-12-16T20:22:57.815Z,-5.00
2022-12-16T20:25:46.050Z,-5.20
2022-12-16T20:28:31.365Z,-5.30
2022-12-16T20:31:19.788Z,-5.40
2022-12-16T20:34:05.071Z,-5.50
2022-12-16T20:36:50.694Z,-5.60
2022-12-16T20:39:37.403Z,-5.70
2022-12-16T20:42:24.672Z,-5.70
2022-12-16T20:45:10.047Z,-5.80
2022-12-16T20:47:56.416Z,-5.80
2022-12-16T20:50:41.844Z,-5.70
2022-12-16T20:53:27.481Z,-5.70
2022-12-16T20:56:09.340Z,-5.60
2022-12-16T20:58:56.432Z,-5.60
2022-12-16T21:02:01.571Z,-5.60
2022-12-16T21:04:48.103Z,-5.50
2022-12-16T21:07:33.483Z,-5.60
2022-12-16T21:10:19.048Z,-5.60
2022-12-16T21:13:07.019Z,-5.50
2022-12-16T21:15:56.219Z,-5.60
2022-12-16T21:18:43.000Z,-5.60
2022-12-16T21:21:28.391Z,-5.60
2022-12-16T21:24:13.980Z,-5.60
2022-12-16T21:26:59.359Z,-5.70
2022-12-16T21:29:44.869Z,-5.80
2022-12-16T21:32:31.982Z,-5.90
2022-12-16T21:35:17.450Z,-6.10
2022-12-16T21:38:03.110Z,-6.10
2022-12-16T21:40:48.887Z,-6.20
2022-12-16T21:43:34.337Z,-6.30
2022-12-16T21:46:19.823Z,-6.40
2022-12-16T21:49:06.645Z,-6.40
2022-12-16T21:51:52.115Z,-6.40
2022-12-16T21:54:37.463Z,-6.60
2022-12-16T21:57:22.873Z,-6.60
2022-12-16T22:00:08.108Z,-6.70
2022-12-16T22:02:54.513Z,-6.70
2022-12-16T22:05:41.100Z,-6.80
2022-12-16T22:08:30.022Z,-6.80
2022-12-16T22:11:15.585Z,-6.70
2022-12-16T22:14:01.035Z,-6.60
2022-12-16T22:16:46.648Z,-6.50
2022-12-16T22:19:31.975Z,-6.30
2022-12-16T22:22:18.752Z,-6.20
2022-12-16T22:25:07.196Z,-6.00
2022-12-16T22:27:56.888Z,-5.90
2022-12-16T22:30:42.504Z,-5.80
2022-12-16T22:33:28.698Z,-5.80
2022-12-16T22:36:19.019Z,-5.80
2022-12-16T22:39:05.643Z,-5.70
2022-12-16T22:41:53.126Z,-5.80
2022-12-16T22:44:38.902Z,-5.70
2022-12-16T22:47:25.426Z,-5.70
2022-12-16T22:50:11.037Z,-5.70
2022-12-16T22:52:56.620Z,-5.70
2022-12-16T22:55:43.452Z,-5.70
2022-12-16T22:58:30.245Z,-5.70
2022-12-16T23:01:16.406Z,-5.70
2022-12-16T23:04:01.639Z,-5.70
2022-12-16T23:06:47.250Z,-5.70
2022-12-16T23:09:32.631Z,-5.70
2022-12-16T23:12:19.465Z,-5.70
2022-12-16T23:15:05.113Z,-5.70
2022-12-16T23:17:50.711Z,-5.70
2022-12-16T23:20:37.104Z,-5.70
2022-12-16T23:23:22.394Z,-5.70
2022-12-16T23:26:14.433Z,-5.70
2022-12-16T23:29:01.266Z,-5.70
2022-12-16T23:31:46.658Z,-5.70
2022-12-16T23:34:32.024Z,-5.70
2022-12-16T23:37:17.766Z,-5.80
2022-12-16T23:40:03.080Z,-5.70
2022-12-16T23:42:48.738Z,-5.70
2022-12-16T23:45:35.908Z,-5.80
2022-12-16T23:48:22.812Z,-5.80
2022-12-16T23:51:08.215Z,-5.80
2022-12-16T23:53:54.034Z,-5.80
2022-12-16T23:56:43.277Z,-5.80
2022-12-16T23:59:28.780Z,-5.90
